Time;durP1;ratioP1;P1;durP2;ratioP2;P2;SDS_P1;SDS_P2;PMS_P1;PMS_P2;Temp;Humidity;BMP_temperature;BMP_pressure;BME280_temperature;BME280_humidity;BME280_pressure;Samples;Min_cycle;Max_cycle;Signal;HPM_P1;HPM_P2
2023/04/05 00:01:18;;;;;;;1.87;1.77;;;;;;;;;;5096172;28;20193;-81
2023/04/05 00:03:47;;;;;;;4.57;3.73;;;;;;;;;;5096714;28;20250;-81
2023/04/05 00:06:15;;;;;;;3.20;2.17;;;;;;;;;;5096202;28;20229;-81
2023/04/05 00:08:49;;;;;;;0.90;0.90;;;;;;;;;;5096018;28;20233;-81
2023/04/05 00:11:18;;;;;;;0.90;0.90;;;;;;;;;;5096089;28;20189;-81
2023/04/05 00:13:47;;;;;;;0.90;0.90;;;;;;;;;;5095918;28;20228;-81
2023/04/05 00:16:16;;;;;;;0.90;0.90;;;;;;;;;;5096040;28;20199;-81
2023/04/05 00:18:48;;;;;;;0.80;0.80;;;;;;;;;;5096238;28;20219;-80
2023/04/05 00:21:17;;;;;;;1.67;1.67;;;;;;;;;;5095982;28;20197;-80
2023/04/05 00:23:47;;;;;;;1.03;1.03;;;;;;;;;;5096187;28;20205;-80
2023/04/05 00:26:15;;;;;;;0.80;0.80;;;;;;;;;;5095606;28;20228;-80
2023/04/05 00:28:44;;;;;;;0.90;0.90;;;;;;;;;;5096177;28;20197;-80
2023/04/05 00:31:13;;;;;;;0.90;0.90;;;;;;;;;;5095470;28;20216;-81
2023/04/05 00:33:41;;;;;;;2.00;1.67;;;;;;;;;;5095827;28;20197;-80
2023/04/05 00:36:10;;;;;;;0.90;0.90;;;;;;;;;;5095774;28;20288;-80
2023/04/05 00:38:40;;;;;;;0.90;0.90;;;;;;;;;;5095772;28;20196;-81
2023/04/05 00:41:10;;;;;;;1.47;1.47;;;;;;;;;;5095310;28;20280;-81
2023/04/05 00:43:38;;;;;;;2.00;1.97;;;;;;;;;;5095859;28;20236;-81
2023/04/05 00:46:08;;;;;;;1.80;1.70;;;;;;;;;;5095414;28;20276;-81
2023/04/05 00:48:37;;;;;;;1.00;1.00;;;;;;;;;;5095664;28;20201;-81
2023/04/05 00:51:08;;;;;;;1.00;1.00;;;;;;;;;;5095547;28;20197;-81
2023/04/05 00:53:37;;;;;;;2.30;2.20;;;;;;;;;;5095411;28;20233;-82
2023/04/05 00:56:05;;;;;;;0.90;0.90;;;;;;;;;;5095563;28;20200;-82
2023/04/05 00:58:35;;;;;;;2.30;2.30;;;;;;;;;;5095230;28;20236;-82
2023/04/05 01:01:12;;;;;;;0.90;0.90;;;;;;;;;;5095568;28;20193;-82
2023/04/05 01:03:43;;;;;;;2.37;2.27;;;;;;;;;;5094742;28;20241;-81
2023/04/05 01:06:17;;;;;;;1.10;1.10;;;;;;;;;;5093734;28;20312;-81
2023/04/05 01:08:50;;;;;;;1.30;1.30;;;;;;;;;;5095036;28;20234;-82
2023/04/05 01:11:21;;;;;;;2.47;2.37;;;;;;;;;;5094968;28;20215;-82
2023/04/05 01:13:51;;;;;;;0.97;0.97;;;;;;;;;;5095011;28;20246;-82
2023/04/05 01:16:20;;;;;;;0.80;0.80;;;;;;;;;;5095000;28;20264;-81
2023/04/05 01:18:48;;;;;;;2.13;2.13;;;;;;;;;;5094942;28;20231;-81
2023/04/05 01:21:28;;;;;;;0.90;0.90;;;;;;;;;;5094870;28;20201;-81
2023/04/05 01:24:11;;;;;;;1.63;1.63;;;;;;;;;;5094877;28;20197;-81
2023/04/05 01:27:01;;;;;;;1.30;1.30;;;;;;;;;;5094820;28;20216;-81
2023/04/05 01:29:39;;;;;;;2.87;1.37;;;;;;;;;;5095300;28;20239;-81
2023/04/05 01:32:10;;;;;;;2.60;2.50;;;;;;;;;;5095072;28;20235;-81
2023/04/05 01:34:41;;;;;;;1.10;1.10;;;;;;;;;;5094856;28;20205;-81
2023/04/05 01:37:12;;;;;;;0.90;0.90;;;;;;;;;;5094534;28;20288;-81
2023/04/05 01:39:41;;;;;;;1.50;1.50;;;;;;;;;;5094665;28;20193;-81
2023/04/05 01:42:10;;;;;;;2.03;1.93;;;;;;;;;;5094652;28;20258;-83
2023/04/05 01:44:40;;;;;;;0.90;0.90;;;;;;;;;;5094590;28;20204;-82
2023/04/05 01:47:09;;;;;;;0.90;0.90;;;;;;;;;;5094371;28;20243;-82
2023/04/05 01:49:37;;;;;;;2.13;1.97;;;;;;;;;;5094354;28;20201;-82
2023/04/05 01:52:05;;;;;;;0.90;0.90;;;;;;;;;;5094090;28;20288;-82
2023/04/05 01:54:34;;;;;;;1.40;1.40;;;;;;;;;;5094227;28;20205;-82
2023/04/05 01:57:02;;;;;;;1.40;1.40;;;;;;;;;;5094026;28;20296;-82
2023/04/05 01:59:30;;;;;;;1.43;1.37;;;;;;;;;;5094153;28;20197;-82
2023/04/05 02:02:00;;;;;;;0.90;0.90;;;;;;;;;;5094184;28;20217;-81
2023/04/05 02:04:29;;;;;;;1.17;1.17;;;;;;;;;;5093679;28;20205;-81
2023/04/05 02:06:57;;;;;;;0.90;0.90;;;;;;;;;;5094017;28;20225;-81
2023/04/05 02:09:26;;;;;;;0.90;0.90;;;;;;;;;;5093870;28;20299;-80
2023/04/05 02:11:55;;;;;;;1.10;1.10;;;;;;;;;;5093900;28;20193;-80
2023/04/05 02:14:23;;;;;;;1.20;1.20;;;;;;;;;;5094254;28;20222;-81
2023/04/05 02:16:52;;;;;;;0.90;0.90;;;;;;;;;;5093476;28;20223;-81
2023/04/05 02:19:22;;;;;;;0.90;0.90;;;;;;;;;;5093381;28;20260;-81
2023/04/05 02:21:52;;;;;;;0.80;0.80;;;;;;;;;;5093745;28;20292;-81
2023/04/05 02:24:20;;;;;;;2.00;1.67;;;;;;;;;;5093422;28;20200;-81
2023/04/05 02:26:50;;;;;;;0.90;0.90;;;;;;;;;;5093537;28;20221;-81
2023/04/05 02:29:18;;;;;;;0.90;0.90;;;;;;;;;;5093728;28;20197;-81
2023/04/05 02:31:46;;;;;;;1.00;1.00;;;;;;;;;;5093694;28;20193;-80
2023/04/05 02:34:15;;;;;;;2.70;2.60;;;;;;;;;;5093357;28;20205;-82
2023/04/05 02:36:46;;;;;;;2.70;2.60;;;;;;;;;;5093506;28;20197;-82
2023/04/05 02:39:14;;;;;;;1.00;1.00;;;;;;;;;;5093679;28;20201;-82
2023/04/05 02:41:43;;;;;;;1.30;1.30;;;;;;;;;;5093393;28;20282;-82
2023/04/05 02:44:11;;;;;;;2.03;1.93;;;;;;;;;;5093262;28;20205;-82
2023/04/05 02:46:39;;;;;;;0.93;0.93;;;;;;;;;;5092982;28;20209;-82
2023/04/05 02:49:08;;;;;;;1.03;1.03;;;;;;;;;;5093085;28;20205;-82
2023/04/05 02:51:37;;;;;;;1.40;1.40;;;;;;;;;;5093300;28;20200;-82
2023/04/05 02:54:06;;;;;;;2.80;1.83;;;;;;;;;;5093177;28;20268;-80
2023/04/05 02:56:35;;;;;;;0.97;0.97;;;;;;;;;;5093133;28;20209;-80
2023/04/05 02:59:03;;;;;;;0.90;0.90;;;;;;;;;;5093226;28;20196;-80
2023/04/05 03:01:35;;;;;;;1.10;1.10;;;;;;;;;;5093351;28;20201;-80
2023/04/05 03:04:03;;;;;;;1.00;1.00;;;;;;;;;;5092223;28;20195;-80
2023/04/05 03:06:32;;;;;;;1.40;1.40;;;;;;;;;;5093008;28;20223;-81
2023/04/05 03:09:00;;;;;;;0.90;0.90;;;;;;;;;;5092938;28;20304;-82
2023/04/05 03:11:30;;;;;;;1.50;1.50;;;;;;;;;;5093062;28;20204;-82
2023/04/05 03:14:01;;;;;;;1.37;1.17;;;;;;;;;;5092630;28;20196;-82
2023/04/05 03:16:29;;;;;;;2.43;2.33;;;;;;;;;;5092738;28;20287;-82
2023/04/05 03:18:58;;;;;;;3.33;3.20;;;;;;;;;;5092922;28;20196;-82
2023/04/05 03:21:28;;;;;;;2.07;1.93;;;;;;;;;;5092294;28;20261;-82
2023/04/05 03:23:57;;;;;;;1.93;1.83;;;;;;;;;;5092657;28;20262;-82
2023/04/05 03:26:26;;;;;;;0.90;0.90;;;;;;;;;;5092130;28;20225;-82
2023/04/05 03:28:56;;;;;;;0.90;0.90;;;;;;;;;;5091514;28;20224;-82
2023/04/05 03:31:24;;;;;;;1.00;1.00;;;;;;;;;;5092831;28;20205;-82
2023/04/05 03:33:53;;;;;;;1.00;1.00;;;;;;;;;;5092607;28;20209;-82
2023/04/05 03:36:21;;;;;;;0.90;0.90;;;;;;;;;;5092279;28;20211;-82
2023/04/05 03:38:50;;;;;;;1.00;1.00;;;;;;;;;;5092554;28;20251;-82
2023/04/05 03:41:19;;;;;;;2.37;2.27;;;;;;;;;;5092153;28;20211;-82
2023/04/05 03:43:48;;;;;;;1.00;1.00;;;;;;;;;;5092287;28;20247;-82
2023/04/05 03:46:17;;;;;;;0.90;0.90;;;;;;;;;;5092383;28;20299;-82
2023/04/05 03:48:46;;;;;;;2.50;2.40;;;;;;;;;;5092156;28;20217;-82
2023/04/05 03:51:15;;;;;;;0.90;0.90;;;;;;;;;;5091935;28;20267;-82
2023/04/05 03:53:43;;;;;;;1.10;1.10;;;;;;;;;;5092339;28;20193;-82
2023/04/05 03:56:12;;;;;;;0.97;0.97;;;;;;;;;;5092150;28;20299;-82
2023/04/05 03:58:40;;;;;;;1.00;1.00;;;;;;;;;;5091714;28;20216;-82
2023/04/05 04:01:09;;;;;;;0.90;0.90;;;;;;;;;;5092235;28;20197;-82
2023/04/05 04:03:39;;;;;;;0.90;0.90;;;;;;;;;;5092116;28;20193;-82
2023/04/05 04:06:08;;;;;;;1.87;1.87;;;;;;;;;;5092028;28;20251;-82
2023/04/05 04:08:36;;;;;;;0.90;0.90;;;;;;;;;;5091915;28;20223;-82
2023/04/05 04:11:05;;;;;;;1.00;1.00;;;;;;;;;;5092113;28;20204;-83
2023/04/05 04:13:33;;;;;;;0.93;0.93;;;;;;;;;;5091849;28;20200;-81
2023/04/05 04:16:02;;;;;;;2.90;2.70;;;;;;;;;;5092246;28;20256;-80
2023/04/05 04:18:31;;;;;;;1.10;1.10;;;;;;;;;;5091908;28;20310;-81
2023/04/05 04:21:05;;;;;;;1.00;1.00;;;;;;;;;;5092082;28;20201;-81
2023/04/05 04:23:37;;;;;;;0.90;0.90;;;;;;;;;;5092032;28;20245;-80
2023/04/05 04:26:05;;;;;;;1.20;1.20;;;;;;;;;;5091959;28;20233;-80
2023/04/05 04:28:37;;;;;;;1.27;1.27;;;;;;;;;;5091803;28;20327;-80
2023/04/05 04:31:08;;;;;;;1.27;1.27;;;;;;;;;;5091925;28;20229;-81
2023/04/05 04:33:36;;;;;;;1.20;1.20;;;;;;;;;;5091718;28;20210;-81
2023/04/05 04:36:12;;;;;;;1.40;1.40;;;;;;;;;;5091760;28;20211;-80
2023/04/05 04:38:43;;;;;;;2.40;2.30;;;;;;;;;;5091931;28;20215;-80
2023/04/05 04:41:11;;;;;;;0.90;0.90;;;;;;;;;;5094488;28;20216;-81
2023/04/05 04:43:42;;;;;;;1.17;1.17;;;;;;;;;;5095436;28;20201;-81
2023/04/05 04:46:13;;;;;;;1.57;1.53;;;;;;;;;;5095494;28;20285;-80
2023/04/05 04:48:42;;;;;;;0.90;0.90;;;;;;;;;;5095143;28;20247;-80
2023/04/05 04:51:12;;;;;;;5.60;2.40;;;;;;;;;;5095152;28;20206;-81
2023/04/05 04:53:40;;;;;;;0.90;0.90;;;;;;;;;;5095894;28;20201;-81
2023/04/05 04:56:09;;;;;;;4.93;2.23;;;;;;;;;;5095145;28;20250;-81
2023/04/05 04:58:37;;;;;;;2.57;2.40;;;;;;;;;;5095190;28;20228;-82
2023/04/05 05:01:08;;;;;;;3.57;2.50;;;;;;;;;;5095166;28;20287;-82
2023/04/05 05:03:38;;;;;;;4.00;3.13;;;;;;;;;;5095045;28;20193;-82
2023/04/05 05:06:06;;;;;;;2.10;1.77;;;;;;;;;;5094874;28;20224;-83
2023/04/05 05:08:37;;;;;;;1.93;1.83;;;;;;;;;;5095056;28;20270;-82
2023/04/05 05:11:07;;;;;;;4.57;3.70;;;;;;;;;;5095250;28;20197;-82
2023/04/05 05:13:35;;;;;;;1.10;1.10;;;;;;;;;;5094507;28;20247;-82
2023/04/05 05:16:04;;;;;;;1.40;1.40;;;;;;;;;;5094764;28;20201;-82
2023/04/05 05:18:32;;;;;;;1.00;1.00;;;;;;;;;;5095052;28;20202;-82
2023/04/05 05:21:01;;;;;;;4.77;4.43;;;;;;;;;;5094784;28;20292;-82
2023/04/05 05:23:30;;;;;;;1.60;1.60;;;;;;;;;;5094667;28;20254;-82
2023/04/05 05:26:00;;;;;;;2.17;2.07;;;;;;;;;;5094640;28;20282;-82
2023/04/05 05:28:28;;;;;;;1.00;1.00;;;;;;;;;;5094639;28;20213;-82
2023/04/05 05:30:56;;;;;;;1.30;1.30;;;;;;;;;;5094793;28;20197;-82
2023/04/05 05:33:25;;;;;;;1.03;1.03;;;;;;;;;;5094603;28;20201;-82
2023/04/05 05:35:53;;;;;;;1.40;1.40;;;;;;;;;;5094479;28;20300;-82
2023/04/05 05:38:22;;;;;;;1.30;1.30;;;;;;;;;;5094598;28;20205;-82
2023/04/05 05:40:55;;;;;;;0.87;0.87;;;;;;;;;;5094608;28;20200;-82
2023/04/05 05:43:25;;;;;;;0.90;0.90;;;;;;;;;;5094117;28;20208;-82
2023/04/05 05:45:54;;;;;;;1.00;1.00;;;;;;;;;;5094460;28;20197;-82
2023/04/05 05:48:22;;;;;;;0.90;0.90;;;;;;;;;;5094209;28;20225;-82
2023/04/05 05:50:53;;;;;;;2.53;1.73;;;;;;;;;;5094265;28;20208;-82
2023/04/05 05:53:21;;;;;;;1.20;1.20;;;;;;;;;;5093385;28;20292;-82
2023/04/05 05:55:50;;;;;;;0.90;0.90;;;;;;;;;;5093713;28;20232;-82
2023/04/05 05:58:18;;;;;;;1.67;1.67;;;;;;;;;;5094339;28;20292;-82
2023/04/05 06:00:50;;;;;;;1.43;1.43;;;;;;;;;;5094023;28;20205;-83
2023/04/05 06:03:20;;;;;;;1.10;1.10;;;;;;;;;;5094330;28;20397;-82
2023/04/05 06:05:52;;;;;;;1.20;1.20;;;;;;;;;;5093781;28;20240;-82
2023/04/05 06:08:20;;;;;;;0.90;0.90;;;;;;;;;;5093833;28;20237;-82
2023/04/05 06:10:49;;;;;;;1.20;1.20;;;;;;;;;;5093804;28;20223;-82
2023/04/05 06:13:17;;;;;;;2.63;2.53;;;;;;;;;;5093650;28;20247;-82
2023/04/05 06:15:47;;;;;;;1.17;1.17;;;;;;;;;;5093972;28;20292;-82
2023/04/05 06:18:19;;;;;;;0.90;0.90;;;;;;;;;;5093748;28;20201;-82
2023/04/05 06:20:48;;;;;;;1.00;1.00;;;;;;;;;;5093537;28;20232;-82
2023/04/05 06:23:16;;;;;;;1.10;1.10;;;;;;;;;;5093667;28;20226;-82
2023/04/05 06:25:45;;;;;;;1.13;1.13;;;;;;;;;;5093382;28;20251;-80
2023/04/05 06:28:13;;;;;;;6.27;5.23;;;;;;;;;;5093518;28;20201;-82
2023/04/05 06:30:42;;;;;;;4.73;4.30;;;;;;;;;;5093440;28;20224;-82
2023/04/05 06:33:11;;;;;;;9.07;6.57;;;;;;;;;;5093300;28;20197;-82
2023/04/05 06:35:40;;;;;;;9.87;6.83;;;;;;;;;;5093232;28;20197;-82
2023/04/05 06:38:09;;;;;;;3.47;3.17;;;;;;;;;;5093416;28;20193;-82
2023/04/05 06:40:37;;;;;;;2.33;2.20;;;;;;;;;;5093397;28;20201;-82
2023/04/05 06:43:06;;;;;;;2.70;2.60;;;;;;;;;;5093741;28;20387;-82
2023/04/05 06:45:35;;;;;;;2.07;2.07;;;;;;;;;;5093413;28;20197;-82
2023/04/05 06:48:04;;;;;;;6.50;5.73;;;;;;;;;;5093419;28;20208;-82
2023/04/05 06:50:32;;;;;;;2.23;2.13;;;;;;;;;;5093448;28;20302;-83
2023/04/05 06:53:05;;;;;;;3.00;2.73;;;;;;;;;;5093065;28;20223;-83
2023/04/05 06:55:33;;;;;;;3.97;3.67;;;;;;;;;;5092845;28;20233;-82
2023/04/05 06:58:02;;;;;;;2.97;2.77;;;;;;;;;;5092770;28;20239;-82
2023/04/05 07:00:31;;;;;;;2.37;2.27;;;;;;;;;;5093023;28;20454;-82
2023/04/05 07:02:59;;;;;;;2.30;2.20;;;;;;;;;;5093253;28;20227;-82
2023/04/05 07:05:30;;;;;;;8.07;5.40;;;;;;;;;;5095366;28;20303;-80
2023/04/05 07:07:58;;;;;;;1.50;1.40;;;;;;;;;;5095760;28;20295;-80
2023/04/05 07:10:28;;;;;;;2.03;1.93;;;;;;;;;;5092515;28;20212;-81
2023/04/05 07:12:56;;;;;;;6.00;2.50;;;;;;;;;;5097577;28;20204;-82
2023/04/05 07:15:28;;;;;;;3.50;2.30;;;;;;;;;;5088713;28;20217;-82
2023/04/05 07:17:57;;;;;;;7.63;2.43;;;;;;;;;;5099631;28;20224;-82
2023/04/05 07:20:28;;;;;;;1.43;1.43;;;;;;;;;;5097399;28;20198;-82
2023/04/05 07:22:57;;;;;;;0.97;0.97;;;;;;;;;;5097573;28;20209;-82
2023/04/05 07:25:27;;;;;;;2.03;1.93;;;;;;;;;;5094352;28;20236;-82
2023/04/05 07:27:55;;;;;;;1.33;1.27;;;;;;;;;;5096042;28;20203;-81
2023/04/05 07:30:30;;;;;;;4.57;3.87;;;;;;;;;;5094347;28;20230;-81
2023/04/05 07:33:00;;;;;;;3.40;3.10;;;;;;;;;;5098424;28;20224;-82
2023/04/05 07:35:29;;;;;;;4.67;3.67;;;;;;;;;;5091121;27;20247;-82
2023/04/05 07:37:57;;;;;;;3.73;2.67;;;;;;;;;;5087950;28;20303;-82
2023/04/05 07:40:37;;;;;;;6.33;4.47;;;;;;;;;;5087772;28;20228;-81
2023/04/05 07:43:09;;;;;;;6.37;2.57;;;;;;;;;;5101061;28;20302;-81
2023/04/05 07:45:38;;;;;;;1.83;1.73;;;;;;;;;;5092783;28;20240;-81
2023/04/05 07:48:08;;;;;;;2.33;2.17;;;;;;;;;;5097424;28;20208;-81
2023/04/05 07:50:41;;;;;;;9.27;6.17;;;;;;;;;;5093907;28;20226;-81
2023/04/05 07:53:14;;;;;;;1.70;1.67;;;;;;;;;;5091276;28;20229;-81
2023/04/05 07:55:45;;;;;;;2.30;2.20;;;;;;;;;;5095961;28;20229;-81
2023/04/05 07:58:15;;;;;;;6.93;4.80;;;;;;;;;;5092137;28;20327;-81
2023/04/05 08:00:45;;;;;;;2.50;2.40;;;;;;;;;;5095711;28;20220;-80
2023/04/05 08:03:14;;;;;;;3.87;3.53;;;;;;;;;;5092356;28;20284;-82
2023/04/05 08:05:44;;;;;;;9.47;6.07;;;;;;;;;;5092405;28;20222;-82
2023/04/05 08:08:13;;;;;;;6.70;3.37;;;;;;;;;;5092125;28;20347;-82
2023/04/05 08:10:42;;;;;;;8.53;6.57;;;;;;;;;;5092716;28;20315;-81
2023/04/05 08:13:12;;;;;;;5.63;5.10;;;;;;;;;;5092316;28;20217;-81
2023/04/05 08:15:41;;;;;;;10.80;6.20;;;;;;;;;;5093970;28;20251;-81
2023/04/05 08:18:09;;;;;;;16.30;10.50;;;;;;;;;;5091641;28;20204;-82
2023/04/05 08:20:39;;;;;;;10.67;7.70;;;;;;;;;;5097519;28;20224;-81
2023/04/05 08:23:09;;;;;;;5.40;4.90;;;;;;;;;;5098650;28;20204;-83
2023/04/05 08:25:39;;;;;;;0.80;0.80;;;;;;;;;;5099273;28;20449;-81
2023/04/05 08:28:10;;;;;;;3.13;2.83;;;;;;;;;;5091992;28;20214;-83
2023/04/05 08:30:44;;;;;;;6.23;5.63;;;;;;;;;;5096068;28;20270;-84
2023/04/05 08:33:13;;;;;;;11.20;5.73;;;;;;;;;;5097742;28;20335;-82
2023/04/05 08:35:41;;;;;;;2.00;1.83;;;;;;;;;;5099682;28;20291;-83
2023/04/05 08:38:11;;;;;;;1.23;1.23;;;;;;;;;;5097141;28;20195;-82
2023/04/05 08:40:41;;;;;;;10.57;7.03;;;;;;;;;;5104178;27;20207;-83
2023/04/05 08:43:11;;;;;;;0.80;0.80;;;;;;;;;;5108706;28;20237;-82
2023/04/05 08:45:47;;;;;;;8.57;6.20;;;;;;;;;;5098776;28;20194;-82
2023/04/05 08:48:16;;;;;;;2.40;2.20;;;;;;;;;;5095978;27;20212;-84
2023/04/05 08:50:51;;;;;;;1.97;1.87;;;;;;;;;;5100418;28;20216;-83
2023/04/05 08:53:20;;;;;;;2.33;2.23;;;;;;;;;;5092315;28;20211;-83
2023/04/05 08:55:50;;;;;;;1.93;1.83;;;;;;;;;;5103457;28;20208;-82
2023/04/05 08:58:21;;;;;;;4.73;2.73;;;;;;;;;;5097486;28;20201;-85
2023/04/05 09:00:54;;;;;;;2.17;1.97;;;;;;;;;;5100769;28;20218;-87
2023/04/05 09:03:23;;;;;;;6.03;4.57;;;;;;;;;;5110897;28;20258;-84
2023/04/05 09:05:55;;;;;;;4.13;2.50;;;;;;;;;;5110725;28;20224;-81
2023/04/05 09:08:24;;;;;;;2.47;2.37;;;;;;;;;;5114467;27;20195;-81
2023/04/05 09:10:55;;;;;;;4.70;3.70;;;;;;;;;;5094638;28;20223;-82
2023/04/05 09:13:24;;;;;;;8.90;6.17;;;;;;;;;;5094102;28;20199;-82
2023/04/05 09:15:54;;;;;;;2.17;2.03;;;;;;;;;;5108488;28;20291;-84
2023/04/05 09:18:26;;;;;;;3.07;2.57;;;;;;;;;;5096400;28;20213;-83
2023/04/05 09:21:02;;;;;;;5.00;3.97;;;;;;;;;;5089311;28;20239;-82
2023/04/05 09:23:31;;;;;;;2.63;2.53;;;;;;;;;;5089683;28;20238;-83
2023/04/05 09:26:04;;;;;;;1.30;1.30;;;;;;;;;;5094579;28;20306;-82
2023/04/05 09:28:42;;;;;;;1.10;1.10;;;;;;;;;;5094717;28;20223;-82
2023/04/05 09:31:30;;;;;;;2.77;2.13;;;;;;;;;;5092910;28;20233;-82
2023/04/05 09:34:00;;;;;;;2.73;2.53;;;;;;;;;;5090234;28;20255;-86
2023/04/05 09:36:29;;;;;;;8.60;4.93;;;;;;;;;;5091675;28;20225;-85
2023/04/05 09:39:07;;;;;;;5.77;4.63;;;;;;;;;;5094875;28;20221;-84
2023/04/05 09:41:36;;;;;;;3.40;2.80;;;;;;;;;;5093367;27;20222;-83
2023/04/05 09:44:05;;;;;;;7.53;4.80;;;;;;;;;;5099775;28;20303;-83
2023/04/05 09:46:36;;;;;;;4.90;4.03;;;;;;;;;;5095404;28;20208;-83
2023/04/05 09:49:08;;;;;;;4.63;2.80;;;;;;;;;;5097889;28;20270;-82
2023/04/05 09:51:38;;;;;;;10.23;6.00;;;;;;;;;;5093412;28;20816;-83
2023/04/05 09:54:08;;;;;;;6.00;5.37;;;;;;;;;;5093536;27;20282;-83
2023/04/05 09:56:37;;;;;;;6.40;5.67;;;;;;;;;;5094064;28;20317;-84
2023/04/05 09:59:08;;;;;;;2.83;2.70;;;;;;;;;;5097136;28;20320;-84
2023/04/05 10:01:38;;;;;;;3.70;3.10;;;;;;;;;;5095364;27;20227;-83
2023/04/05 10:04:09;;;;;;;3.07;2.87;;;;;;;;;;5099826;27;20219;-83
2023/04/05 10:06:39;;;;;;;7.73;4.67;;;;;;;;;;5091129;28;20325;-83
2023/04/05 10:09:09;;;;;;;6.50;2.83;;;;;;;;;;5107555;27;20240;-83
2023/04/05 10:11:38;;;;;;;1.70;1.60;;;;;;;;;;5091783;28;20223;-84
2023/04/05 10:14:09;;;;;;;5.10;4.60;;;;;;;;;;5094711;27;20217;-83
2023/04/05 10:16:51;;;;;;;2.83;2.63;;;;;;;;;;5094422;28;20215;-83
2023/04/05 10:19:30;;;;;;;6.10;3.87;;;;;;;;;;5087795;27;20235;-84
2023/04/05 10:22:01;;;;;;;6.63;4.20;;;;;;;;;;5092904;28;20478;-81
2023/04/05 10:24:35;;;;;;;4.83;2.97;;;;;;;;;;5098702;27;20370;-81
2023/04/05 10:27:06;;;;;;;2.57;2.27;;;;;;;;;;5096589;28;20230;-82
2023/04/05 10:29:39;;;;;;;8.07;6.27;;;;;;;;;;5093767;28;20217;-83
2023/04/05 10:32:11;;;;;;;1.47;1.47;;;;;;;;;;5089767;28;20247;-83
2023/04/05 10:34:43;;;;;;;5.97;4.77;;;;;;;;;;5093047;27;20246;-82
2023/04/05 10:37:16;;;;;;;8.00;5.87;;;;;;;;;;5089227;28;20216;-82
2023/04/05 10:39:46;;;;;;;6.00;5.27;;;;;;;;;;5088783;27;20240;-82
2023/04/05 10:42:24;;;;;;;8.27;6.37;;;;;;;;;;5091381;27;20219;-83
2023/04/05 10:44:54;;;;;;;0.80;0.80;;;;;;;;;;5093286;28;20223;-82
2023/04/05 10:47:26;;;;;;;4.10;2.70;;;;;;;;;;5095836;28;20231;-84
2023/04/05 10:49:57;;;;;;;0.80;0.80;;;;;;;;;;5097971;28;20232;-82
2023/04/05 10:52:26;;;;;;;1.80;1.70;;;;;;;;;;5088042;28;20230;-84
2023/04/05 10:54:56;;;;;;;2.77;2.57;;;;;;;;;;5091453;28;20220;-85
2023/04/05 10:57:25;;;;;;;3.37;2.97;;;;;;;;;;5087077;28;20313;-84
2023/04/05 10:59:55;;;;;;;1.07;1.07;;;;;;;;;;5090977;28;20240;-84
2023/04/05 11:02:25;;;;;;;4.03;3.47;;;;;;;;;;5087546;28;20217;-85
2023/04/05 11:04:55;;;;;;;5.47;4.20;;;;;;;;;;5089472;28;20224;-84
2023/04/05 11:07:26;;;;;;;1.40;1.40;;;;;;;;;;5086564;28;20239;-85
2023/04/05 11:09:57;;;;;;;4.43;4.03;;;;;;;;;;5090450;28;20224;-85
2023/04/05 11:12:52;;;;;;;9.50;4.80;;;;;;;;;;5088111;28;20227;-85
2023/04/05 11:15:31;;;;;;;0.67;0.67;;;;;;;;;;5056118;28;20277;-84
2023/04/05 11:18:06;;;;;;;1.33;1.13;;;;;;;;;;5090708;28;20223;-85
2023/04/05 11:20:44;;;;;;;4.60;3.17;;;;;;;;;;5094841;28;20303;-85
2023/04/05 11:23:17;;;;;;;7.80;5.70;;;;;;;;;;5096900;28;20232;-85
2023/04/05 11:25:51;;;;;;;3.60;2.67;;;;;;;;;;5087873;28;20240;-85
2023/04/05 11:28:24;;;;;;;7.67;5.40;;;;;;;;;;5085469;28;20266;-85
2023/04/05 11:30:55;;;;;;;3.60;3.30;;;;;;;;;;5089122;28;20224;-85
2023/04/05 11:33:38;;;;;;;4.33;3.30;;;;;;;;;;5094404;28;20230;-85
2023/04/05 11:36:08;;;;;;;3.30;3.00;;;;;;;;;;5090449;28;20481;-85
2023/04/05 11:38:37;;;;;;;6.77;5.73;;;;;;;;;;5096115;28;20231;-86
2023/04/05 11:41:06;;;;;;;4.47;3.50;;;;;;;;;;5096682;28;20216;-86
2023/04/05 11:43:37;;;;;;;5.37;4.13;;;;;;;;;;5090350;28;20224;-86
2023/04/05 11:46:07;;;;;;;4.77;4.27;;;;;;;;;;5091295;28;20265;-86
2023/04/05 11:48:49;;;;;;;3.27;2.77;;;;;;;;;;5087409;28;20224;-86
2023/04/05 11:51:21;;;;;;;0.80;0.80;;;;;;;;;;5097452;28;20313;-85
2023/04/05 11:54:04;;;;;;;0.60;0.60;;;;;;;;;;5088415;28;20242;-85
2023/04/05 11:56:35;;;;;;;5.47;3.47;;;;;;;;;;5091377;28;20271;-86
2023/04/05 11:59:08;;;;;;;8.40;7.60;;;;;;;;;;5093392;28;20228;-85
2023/04/05 12:01:38;;;;;;;3.50;3.13;;;;;;;;;;5088870;28;20240;-85
2023/04/05 12:04:08;;;;;;;10.57;6.33;;;;;;;;;;5091800;28;20264;-85
2023/04/05 12:06:37;;;;;;;5.17;4.03;;;;;;;;;;5091574;28;20220;-85
2023/04/05 12:09:08;;;;;;;10.37;6.93;;;;;;;;;;5088772;28;20231;-85
2023/04/05 12:11:39;;;;;;;3.90;2.40;;;;;;;;;;5085793;28;20232;-85
2023/04/05 12:14:08;;;;;;;7.03;5.97;;;;;;;;;;5093532;28;20253;-85
2023/04/05 12:16:37;;;;;;;5.50;4.27;;;;;;;;;;5090232;28;20293;-85
2023/04/05 12:19:06;;;;;;;6.07;4.27;;;;;;;;;;5091093;28;20229;-85
2023/04/05 12:21:36;;;;;;;8.93;7.87;;;;;;;;;;5087892;28;20277;-86
2023/04/05 12:24:04;;;;;;;7.73;6.33;;;;;;;;;;5088239;28;20225;-84
2023/04/05 12:26:35;;;;;;;1.80;1.70;;;;;;;;;;5447286;22;20220;-88
2023/04/05 12:29:04;;;;;;;3.27;2.97;;;;;;;;;;5045158;28;20255;-87
2023/04/05 12:31:36;;;;;;;8.23;2.77;;;;;;;;;;5062447;28;20221;-89
2023/04/05 12:34:05;;;;;;;3.87;2.67;;;;;;;;;;5063534;28;20221;-90
2023/04/05 12:36:33;;;;;;;1.53;1.43;;;;;;;;;;5074553;28;20221;-90
2023/04/05 12:39:07;;;;;;;1.03;0.97;;;;;;;;;;5077430;28;20213;-90
2023/04/05 12:41:37;;;;;;;2.83;2.23;;;;;;;;;;5078585;28;20237;-89
2023/04/05 12:44:06;;;;;;;0.50;0.50;;;;;;;;;;5080449;28;20313;-90
2023/04/05 12:46:40;;;;;;;12.53;5.83;;;;;;;;;;5080345;28;20288;-90
2023/04/05 12:49:11;;;;;;;1.10;1.03;;;;;;;;;;5079209;28;20232;-91
2023/04/05 12:51:43;;;;;;;2.30;2.07;;;;;;;;;;5079209;28;20223;-91
2023/04/05 12:54:14;;;;;;;8.50;5.07;;;;;;;;;;5078087;28;20241;-90
2023/04/05 12:56:43;;;;;;;7.73;3.67;;;;;;;;;;5080753;28;20222;-89
2023/04/05 12:59:12;;;;;;;2.87;2.67;;;;;;;;;;5082699;28;20226;-89
2023/04/05 13:01:46;;;;;;;1.80;1.70;;;;;;;;;;5084092;28;20223;-89
2023/04/05 13:04:21;;;;;;;5.23;4.20;;;;;;;;;;5084506;28;20291;-90
2023/04/05 13:06:53;;;;;;;1.13;1.13;;;;;;;;;;5086379;28;20220;-90
2023/04/05 13:09:28;;;;;;;1.67;1.57;;;;;;;;;;5080145;28;20217;-91
2023/04/05 13:11:56;;;;;;;0.90;0.90;;;;;;;;;;5079981;28;20317;-91
2023/04/05 13:14:31;;;;;;;6.43;3.73;;;;;;;;;;5085292;28;20218;-91
2023/04/05 13:17:03;;;;;;;3.33;2.57;;;;;;;;;;5076631;28;20242;-90
2023/04/05 13:19:31;;;;;;;0.93;0.93;;;;;;;;;;5078550;28;20283;-90
2023/04/05 13:22:00;;;;;;;4.43;3.13;;;;;;;;;;5077075;28;20225;-90
2023/04/05 13:24:30;;;;;;;4.13;2.67;;;;;;;;;;5079982;28;20218;-91
2023/04/05 13:26:59;;;;;;;4.23;3.40;;;;;;;;;;5080461;28;20245;-90
2023/04/05 13:29:30;;;;;;;1.47;1.37;;;;;;;;;;5084527;28;20234;-89
2023/04/05 13:31:59;;;;;;;5.73;3.80;;;;;;;;;;5087498;28;20230;-90
2023/04/05 13:34:27;;;;;;;3.77;3.40;;;;;;;;;;5085904;28;20233;-89
2023/04/05 13:36:57;;;;;;;3.13;2.83;;;;;;;;;;5080941;28;20219;-86
2023/04/05 13:39:30;;;;;;;5.17;3.90;;;;;;;;;;5081080;28;20241;-88
2023/04/05 13:42:00;;;;;;;2.10;1.87;;;;;;;;;;5079730;28;20231;-90
2023/04/05 13:44:29;;;;;;;2.07;1.63;;;;;;;;;;5083744;28;20204;-89
2023/04/05 13:46:59;;;;;;;2.63;2.20;;;;;;;;;;5089470;28;20215;-89
2023/04/05 13:49:28;;;;;;;8.17;4.17;;;;;;;;;;5085409;28;20247;-89
2023/04/05 13:51:58;;;;;;;9.20;6.97;;;;;;;;;;5084981;28;20207;-91
2023/04/05 13:54:28;;;;;;;9.10;6.67;;;;;;;;;;5085843;28;20214;-91
2023/04/05 13:56:59;;;;;;;5.73;4.47;;;;;;;;;;5093538;28;20239;-92
2023/04/05 13:59:28;;;;;;;5.10;3.27;;;;;;;;;;5084997;28;20221;-91
2023/04/05 14:01:59;;;;;;;3.03;2.23;;;;;;;;;;5086837;28;20296;-91
2023/04/05 14:04:29;;;;;;;5.90;4.17;;;;;;;;;;5085890;28;20201;-93
2023/04/05 14:07:00;;;;;;;6.73;3.40;;;;;;;;;;5081465;28;20197;-92
2023/04/05 14:09:29;;;;;;;5.57;4.90;;;;;;;;;;5092808;28;20205;-91
2023/04/05 14:12:01;;;;;;;4.60;3.97;;;;;;;;;;5088973;28;20262;-91
2023/04/05 14:14:30;;;;;;;2.47;1.97;;;;;;;;;;5090931;28;20212;-91
2023/04/05 14:17:00;;;;;;;7.17;5.83;;;;;;;;;;5089918;28;20194;-90
2023/04/05 14:19:31;;;;;;;11.57;6.87;;;;;;;;;;5094231;28;20208;-88
2023/04/05 14:22:00;;;;;;;3.57;3.33;;;;;;;;;;5082230;28;20210;-90
2023/04/05 14:24:29;;;;;;;8.47;5.10;;;;;;;;;;5092904;28;20222;-90
2023/04/05 14:26:58;;;;;;;5.50;5.00;;;;;;;;;;5085873;28;20246;-90
2023/04/05 14:29:32;;;;;;;16.80;7.93;;;;;;;;;;5085602;28;20217;-91
2023/04/05 14:32:00;;;;;;;2.17;2.03;;;;;;;;;;5086051;28;20209;-90
2023/04/05 14:34:30;;;;;;;8.33;5.33;;;;;;;;;;5088076;28;20199;-91
2023/04/05 14:37:02;;;;;;;8.30;6.07;;;;;;;;;;5085695;28;20206;-90
2023/04/05 14:39:31;;;;;;;7.43;5.80;;;;;;;;;;5088302;28;20239;-88
2023/04/05 14:42:14;;;;;;;4.67;3.07;;;;;;;;;;5086206;28;20213;-91
2023/04/05 14:44:47;;;;;;;6.73;4.03;;;;;;;;;;5090965;28;20192;-91
2023/04/05 14:47:18;;;;;;;4.80;4.33;;;;;;;;;;5093086;28;20329;-92
2023/04/05 14:49:47;;;;;;;5.97;4.93;;;;;;;;;;5093994;28;20215;-90
2023/04/05 14:52:18;;;;;;;1.10;1.10;;;;;;;;;;5088877;28;20219;-89
2023/04/05 14:54:48;;;;;;;6.47;3.70;;;;;;;;;;5085115;28;20214;-88
2023/04/05 14:57:17;;;;;;;6.83;4.53;;;;;;;;;;5090247;28;20214;-89
2023/04/05 14:59:50;;;;;;;4.83;4.23;;;;;;;;;;5073889;28;20227;-89
2023/04/05 15:02:25;;;;;;;4.90;3.70;;;;;;;;;;5073764;28;20186;-92